sensor_id;sensor_type;location;lat;lon;timestamp;P1;durP1;ratioP1;P2;durP2;ratioP2
48963;SDS011;34776;48.180;16.420;2023-05-20T00:02:00;14.85;;;13.45;;
48963;SDS011;34776;48.180;16.420;2023-05-20T00:04:26;15.45;;;13.68;;
48963;SDS011;34776;48.180;16.420;2023-05-20T00:06:51;15.68;;;14.18;;
48963;SDS011;34776;48.180;16.420;2023-05-20T00:09:17;17.63;;;14.13;;
48963;SDS011;34776;48.180;16.420;2023-05-20T00:11:42;15.75;;;14.20;;
48963;SDS011;34776;48.180;16.420;2023-05-20T00:14:07;15.75;;;14.15;;
48963;SDS011;34776;48.180;16.420;2023-05-20T00:16:33;15.95;;;14.32;;
48963;SDS011;34776;48.180;16.420;2023-05-20T00:18:58;17.73;;;15.93;;
48963;SDS011;34776;48.180;16.420;2023-05-20T00:21:23;18.90;;;16.90;;
48963;SDS011;34776;48.180;16.420;2023-05-20T00:23:49;18.70;;;16.92;;
48963;SDS011;34776;48.180;16.420;2023-05-20T00:26:15;19.33;;;17.42;;
48963;SDS011;34776;48.180;16.420;2023-05-20T00:28:40;17.05;;;15.45;;
48963;SDS011;34776;48.180;16.420;2023-05-20T00:31:05;17.02;;;15.23;;
48963;SDS011;34776;48.180;16.420;2023-05-20T00:33:31;17.70;;;16.05;;
48963;SDS011;34776;48.180;16.420;2023-05-20T00:35:56;17.33;;;15.63;;
48963;SDS011;34776;48.180;16.420;2023-05-20T00:38:22;20.30;;;18.20;;
48963;SDS011;34776;48.180;16.420;2023-05-20T00:40:47;20.33;;;18.23;;
48963;SDS011;34776;48.180;16.420;2023-05-20T00:43:12;22.75;;;20.42;;
48963;SDS011;34776;48.180;16.420;2023-05-20T00:45:38;22.92;;;20.50;;
48963;SDS011;34776;48.180;16.420;2023-05-20T00:48:03;20.75;;;18.05;;
48963;SDS011;34776;48.180;16.420;2023-05-20T00:50:30;20.33;;;17.85;;
48963;SDS011;34776;48.180;16.420;2023-05-20T00:52:57;21.88;;;18.75;;
48963;SDS011;34776;48.180;16.420;2023-05-20T00:55:23;20.50;;;18.33;;
48963;SDS011;34776;48.180;16.420;2023-05-20T00:57:49;22.45;;;20.15;;
48963;SDS011;34776;48.180;16.420;2023-05-20T01:00:16;21.35;;;18.92;;
48963;SDS011;34776;48.180;16.420;2023-05-20T01:02:42;24.23;;;21.55;;
48963;SDS011;34776;48.180;16.420;2023-05-20T01:05:07;23.25;;;20.95;;
48963;SDS011;34776;48.180;16.420;2023-05-20T01:07:33;27.00;;;21.15;;
48963;SDS011;34776;48.180;16.420;2023-05-20T01:09:58;21.77;;;19.70;;
48963;SDS011;34776;48.180;16.420;2023-05-20T01:12:25;20.25;;;18.20;;
48963;SDS011;34776;48.180;16.420;2023-05-20T01:14:55;20.83;;;18.73;;
48963;SDS011;34776;48.180;16.420;2023-05-20T01:17:29;20.85;;;17.85;;
48963;SDS011;34776;48.180;16.420;2023-05-20T01:19:57;19.60;;;17.55;;
48963;SDS011;34776;48.180;16.420;2023-05-20T01:22:24;20.55;;;18.38;;
48963;SDS011;34776;48.180;16.420;2023-05-20T01:24:51;21.10;;;18.90;;
48963;SDS011;34776;48.180;16.420;2023-05-20T01:27:19;20.13;;;18.00;;
48963;SDS011;34776;48.180;16.420;2023-05-20T01:29:47;22.02;;;18.00;;
48963;SDS011;34776;48.180;16.420;2023-05-20T01:32:25;20.45;;;18.33;;
48963;SDS011;34776;48.180;16.420;2023-05-20T01:34:55;21.83;;;18.00;;
48963;SDS011;34776;48.180;16.420;2023-05-20T01:37:23;19.73;;;17.75;;
48963;SDS011;34776;48.180;16.420;2023-05-20T01:39:49;22.80;;;19.98;;
48963;SDS011;34776;48.180;16.420;2023-05-20T01:42:15;22.17;;;19.80;;
48963;SDS011;34776;48.180;16.420;2023-05-20T01:44:42;24.50;;;21.23;;
48963;SDS011;34776;48.180;16.420;2023-05-20T01:47:07;21.15;;;19.05;;
48963;SDS011;34776;48.180;16.420;2023-05-20T01:49:33;22.50;;;20.17;;
48963;SDS011;34776;48.180;16.420;2023-05-20T01:51:58;23.05;;;20.52;;
48963;SDS011;34776;48.180;16.420;2023-05-20T01:54:24;26.08;;;23.40;;
48963;SDS011;34776;48.180;16.420;2023-05-20T01:56:50;24.90;;;21.80;;
48963;SDS011;34776;48.180;16.420;2023-05-20T01:59:15;21.98;;;19.75;;
48963;SDS011;34776;48.180;16.420;2023-05-20T02:01:40;23.73;;;21.15;;
48963;SDS011;34776;48.180;16.420;2023-05-20T02:04:06;24.25;;;21.58;;
48963;SDS011;34776;48.180;16.420;2023-05-20T02:06:31;24.00;;;20.92;;
48963;SDS011;34776;48.180;16.420;2023-05-20T02:08:57;26.13;;;23.27;;
48963;SDS011;34776;48.180;16.420;2023-05-20T02:11:22;22.50;;;19.92;;
48963;SDS011;34776;48.180;16.420;2023-05-20T02:13:48;23.85;;;20.60;;
48963;SDS011;34776;48.180;16.420;2023-05-20T02:16:14;23.00;;;20.55;;
48963;SDS011;34776;48.180;16.420;2023-05-20T02:18:39;23.05;;;20.10;;
48963;SDS011;34776;48.180;16.420;2023-05-20T02:21:06;22.17;;;19.73;;
48963;SDS011;34776;48.180;16.420;2023-05-20T02:23:32;24.13;;;20.08;;
48963;SDS011;34776;48.180;16.420;2023-05-20T02:25:57;26.55;;;21.58;;
48963;SDS011;34776;48.180;16.420;2023-05-20T02:28:23;23.02;;;20.40;;
48963;SDS011;34776;48.180;16.420;2023-05-20T02:30:48;24.38;;;21.08;;
48963;SDS011;34776;48.180;16.420;2023-05-20T02:33:16;25.48;;;21.48;;
48963;SDS011;34776;48.180;16.420;2023-05-20T02:35:42;25.92;;;21.13;;
48963;SDS011;34776;48.180;16.420;2023-05-20T02:38:07;23.25;;;20.73;;
48963;SDS011;34776;48.180;16.420;2023-05-20T02:40:33;24.52;;;21.92;;
48963;SDS011;34776;48.180;16.420;2023-05-20T02:42:59;25.58;;;22.88;;
48963;SDS011;34776;48.180;16.420;2023-05-20T02:45:25;25.05;;;22.20;;
48963;SDS011;34776;48.180;16.420;2023-05-20T02:47:50;26.27;;;23.35;;
48963;SDS011;34776;48.180;16.420;2023-05-20T02:50:16;25.30;;;21.95;;
48963;SDS011;34776;48.180;16.420;2023-05-20T02:52:41;26.02;;;23.20;;
48963;SDS011;34776;48.180;16.420;2023-05-20T02:55:07;27.60;;;24.23;;
48963;SDS011;34776;48.180;16.420;2023-05-20T02:57:33;25.00;;;22.23;;
48963;SDS011;34776;48.180;16.420;2023-05-20T03:00:02;21.67;;;19.40;;
48963;SDS011;34776;48.180;16.420;2023-05-20T03:02:35;24.40;;;21.70;;
48963;SDS011;34776;48.180;16.420;2023-05-20T03:05:00;22.65;;;20.10;;
48963;SDS011;34776;48.180;16.420;2023-05-20T03:07:26;26.63;;;22.38;;
48963;SDS011;34776;48.180;16.420;2023-05-20T03:09:52;21.02;;;18.77;;
48963;SDS011;34776;48.180;16.420;2023-05-20T03:12:17;25.60;;;21.08;;
48963;SDS011;34776;48.180;16.420;2023-05-20T03:14:43;25.50;;;21.20;;
48963;SDS011;34776;48.180;16.420;2023-05-20T03:17:08;23.45;;;20.38;;
48963;SDS011;34776;48.180;16.420;2023-05-20T03:19:35;25.55;;;21.20;;
48963;SDS011;34776;48.180;16.420;2023-05-20T03:22:01;23.00;;;20.33;;
48963;SDS011;34776;48.180;16.420;2023-05-20T03:24:26;23.85;;;20.92;;
48963;SDS011;34776;48.180;16.420;2023-05-20T03:26:53;23.02;;;20.20;;
48963;SDS011;34776;48.180;16.420;2023-05-20T03:29:18;26.13;;;23.33;;
48963;SDS011;34776;48.180;16.420;2023-05-20T03:31:43;26.08;;;21.92;;
48963;SDS011;34776;48.180;16.420;2023-05-20T03:34:09;26.60;;;22.52;;
48963;SDS011;34776;48.180;16.420;2023-05-20T03:36:34;22.13;;;19.75;;
48963;SDS011;34776;48.180;16.420;2023-05-20T03:39:00;23.63;;;20.95;;
48963;SDS011;34776;48.180;16.420;2023-05-20T03:41:26;23.88;;;20.83;;
48963;SDS011;34776;48.180;16.420;2023-05-20T03:43:51;26.70;;;23.58;;
48963;SDS011;34776;48.180;16.420;2023-05-20T03:46:17;26.10;;;22.48;;
48963;SDS011;34776;48.180;16.420;2023-05-20T03:48:42;23.70;;;21.20;;
48963;SDS011;34776;48.180;16.420;2023-05-20T03:51:07;25.63;;;21.70;;
48963;SDS011;34776;48.180;16.420;2023-05-20T03:53:33;25.95;;;21.85;;
48963;SDS011;34776;48.180;16.420;2023-05-20T03:55:58;29.30;;;24.60;;
48963;SDS011;34776;48.180;16.420;2023-05-20T03:58:23;30.52;;;24.85;;
48963;SDS011;34776;48.180;16.420;2023-05-20T04:00:50;28.42;;;24.17;;
48963;SDS011;34776;48.180;16.420;2023-05-20T04:03:15;25.27;;;22.55;;
48963;SDS011;34776;48.180;16.420;2023-05-20T04:05:41;26.73;;;22.42;;
48963;SDS011;34776;48.180;16.420;2023-05-20T04:08:06;30.70;;;25.13;;
48963;SDS011;34776;48.180;16.420;2023-05-20T04:10:31;28.17;;;22.45;;
48963;SDS011;34776;48.180;16.420;2023-05-20T04:12:57;30.33;;;22.90;;
48963;SDS011;34776;48.180;16.420;2023-05-20T04:15:22;26.63;;;21.50;;
48963;SDS011;34776;48.180;16.420;2023-05-20T04:17:49;26.80;;;23.98;;
48963;SDS011;34776;48.180;16.420;2023-05-20T04:20:14;24.55;;;21.25;;
48963;SDS011;34776;48.180;16.420;2023-05-20T04:22:40;22.52;;;20.10;;
48963;SDS011;34776;48.180;16.420;2023-05-20T04:25:05;24.73;;;20.80;;
48963;SDS011;34776;48.180;16.420;2023-05-20T04:27:31;22.95;;;19.98;;
48963;SDS011;34776;48.180;16.420;2023-05-20T04:29:57;25.17;;;20.90;;
48963;SDS011;34776;48.180;16.420;2023-05-20T04:32:23;24.77;;;19.90;;
48963;SDS011;34776;48.180;16.420;2023-05-20T04:34:48;26.05;;;22.92;;
48963;SDS011;34776;48.180;16.420;2023-05-20T04:37:14;24.20;;;21.55;;
48963;SDS011;34776;48.180;16.420;2023-05-20T04:39:40;25.50;;;21.85;;
48963;SDS011;34776;48.180;16.420;2023-05-20T04:42:07;22.85;;;20.40;;
48963;SDS011;34776;48.180;16.420;2023-05-20T04:44:33;22.67;;;20.27;;
48963;SDS011;34776;48.180;16.420;2023-05-20T04:46:58;25.65;;;21.25;;
48963;SDS011;34776;48.180;16.420;2023-05-20T04:49:24;23.20;;;20.13;;
48963;SDS011;34776;48.180;16.420;2023-05-20T04:51:50;22.88;;;20.00;;
48963;SDS011;34776;48.180;16.420;2023-05-20T04:54:16;27.55;;;21.77;;
48963;SDS011;34776;48.180;16.420;2023-05-20T04:56:44;23.42;;;20.77;;
48963;SDS011;34776;48.180;16.420;2023-05-20T04:59:10;27.27;;;24.17;;
48963;SDS011;34776;48.180;16.420;2023-05-20T05:01:36;24.65;;;22.08;;
48963;SDS011;34776;48.180;16.420;2023-05-20T05:04:01;25.20;;;21.23;;
48963;SDS011;34776;48.180;16.420;2023-05-20T05:06:27;22.50;;;19.60;;
48963;SDS011;34776;48.180;16.420;2023-05-20T05:08:53;24.05;;;20.17;;
48963;SDS011;34776;48.180;16.420;2023-05-20T05:11:18;24.63;;;21.17;;
48963;SDS011;34776;48.180;16.420;2023-05-20T05:13:43;24.98;;;21.67;;
48963;SDS011;34776;48.180;16.420;2023-05-20T05:16:09;24.35;;;21.63;;
48963;SDS011;34776;48.180;16.420;2023-05-20T05:18:34;26.08;;;20.38;;
48963;SDS011;34776;48.180;16.420;2023-05-20T05:21:00;25.75;;;20.30;;
48963;SDS011;34776;48.180;16.420;2023-05-20T05:23:26;25.85;;;20.52;;
48963;SDS011;34776;48.180;16.420;2023-05-20T05:25:52;23.98;;;19.98;;
48963;SDS011;34776;48.180;16.420;2023-05-20T05:28:17;23.33;;;20.73;;
48963;SDS011;34776;48.180;16.420;2023-05-20T05:30:43;21.58;;;19.27;;
48963;SDS011;34776;48.180;16.420;2023-05-20T05:33:08;19.50;;;16.95;;
48963;SDS011;34776;48.180;16.420;2023-05-20T05:35:34;21.85;;;17.83;;
48963;SDS011;34776;48.180;16.420;2023-05-20T05:38:01;20.77;;;17.05;;
48963;SDS011;34776;48.180;16.420;2023-05-20T05:40:27;22.00;;;18.95;;
48963;SDS011;34776;48.180;16.420;2023-05-20T05:42:52;27.15;;;19.98;;
48963;SDS011;34776;48.180;16.420;2023-05-20T05:45:17;25.33;;;19.98;;
48963;SDS011;34776;48.180;16.420;2023-05-20T05:47:43;25.92;;;18.77;;
48963;SDS011;34776;48.180;16.420;2023-05-20T05:50:08;20.70;;;18.58;;
48963;SDS011;34776;48.180;16.420;2023-05-20T05:52:34;20.70;;;17.25;;
48963;SDS011;34776;48.180;16.420;2023-05-20T05:55:00;19.08;;;16.98;;
48963;SDS011;34776;48.180;16.420;2023-05-20T05:57:26;18.83;;;15.93;;
48963;SDS011;34776;48.180;16.420;2023-05-20T05:59:51;20.98;;;18.35;;
48963;SDS011;34776;48.180;16.420;2023-05-20T06:02:16;18.90;;;16.92;;
48963;SDS011;34776;48.180;16.420;2023-05-20T06:04:43;16.92;;;15.10;;
48963;SDS011;34776;48.180;16.420;2023-05-20T06:07:08;22.27;;;18.45;;
48963;SDS011;34776;48.180;16.420;2023-05-20T06:09:34;21.15;;;17.42;;
48963;SDS011;34776;48.180;16.420;2023-05-20T06:12:00;19.73;;;17.23;;
48963;SDS011;34776;48.180;16.420;2023-05-20T06:14:26;19.95;;;16.40;;
48963;SDS011;34776;48.180;16.420;2023-05-20T06:16:51;18.50;;;16.60;;
48963;SDS011;34776;48.180;16.420;2023-05-20T06:19:17;17.92;;;15.18;;
48963;SDS011;34776;48.180;16.420;2023-05-20T06:21:42;17.88;;;15.98;;
48963;SDS011;34776;48.180;16.420;2023-05-20T06:24:07;18.77;;;16.25;;
48963;SDS011;34776;48.180;16.420;2023-05-20T06:26:33;18.52;;;14.65;;
48963;SDS011;34776;48.180;16.420;2023-05-20T06:28:58;22.00;;;14.85;;
48963;SDS011;34776;48.180;16.420;2023-05-20T06:31:23;17.55;;;14.75;;
48963;SDS011;34776;48.180;16.420;2023-05-20T06:33:49;21.60;;;18.77;;
48963;SDS011;34776;48.180;16.420;2023-05-20T06:36:15;17.95;;;16.00;;
48963;SDS011;34776;48.180;16.420;2023-05-20T06:38:41;20.63;;;14.43;;
48963;SDS011;34776;48.180;16.420;2023-05-20T06:41:06;15.68;;;13.27;;
48963;SDS011;34776;48.180;16.420;2023-05-20T06:43:32;14.07;;;12.57;;
48963;SDS011;34776;48.180;16.420;2023-05-20T06:45:58;15.75;;;12.98;;
48963;SDS011;34776;48.180;16.420;2023-05-20T06:48:23;15.52;;;12.90;;
48963;SDS011;34776;48.180;16.420;2023-05-20T06:50:49;14.10;;;12.10;;
48963;SDS011;34776;48.180;16.420;2023-05-20T06:53:14;14.93;;;13.38;;
48963;SDS011;34776;48.180;16.420;2023-05-20T06:55:39;14.80;;;11.75;;
48963;SDS011;34776;48.180;16.420;2023-05-20T06:58:05;12.77;;;11.00;;
48963;SDS011;34776;48.180;16.420;2023-05-20T07:00:30;14.55;;;12.98;;
48963;SDS011;34776;48.180;16.420;2023-05-20T07:02:55;13.50;;;11.63;;
48963;SDS011;34776;48.180;16.420;2023-05-20T07:05:21;16.90;;;12.13;;
48963;SDS011;34776;48.180;16.420;2023-05-20T07:07:48;15.38;;;13.75;;
48963;SDS011;34776;48.180;16.420;2023-05-20T07:10:13;14.60;;;13.10;;
48963;SDS011;34776;48.180;16.420;2023-05-20T07:12:39;14.88;;;12.13;;
48963;SDS011;34776;48.180;16.420;2023-05-20T07:15:04;14.82;;;12.88;;
48963;SDS011;34776;48.180;16.420;2023-05-20T07:17:30;15.48;;;12.18;;
48963;SDS011;34776;48.180;16.420;2023-05-20T07:19:55;12.98;;;11.13;;
48963;SDS011;34776;48.180;16.420;2023-05-20T07:22:20;15.88;;;11.82;;
48963;SDS011;34776;48.180;16.420;2023-05-20T07:24:46;16.65;;;13.02;;
48963;SDS011;34776;48.180;16.420;2023-05-20T07:27:11;11.98;;;10.15;;
48963;SDS011;34776;48.180;16.420;2023-05-20T07:29:37;12.40;;;9.73;;
48963;SDS011;34776;48.180;16.420;2023-05-20T07:32:03;12.65;;;10.80;;
48963;SDS011;34776;48.180;16.420;2023-05-20T07:34:29;14.25;;;9.40;;
48963;SDS011;34776;48.180;16.420;2023-05-20T07:36:56;11.80;;;9.55;;
48963;SDS011;34776;48.180;16.420;2023-05-20T07:39:22;11.88;;;9.60;;
48963;SDS011;34776;48.180;16.420;2023-05-20T07:41:48;12.35;;;9.38;;
48963;SDS011;34776;48.180;16.420;2023-05-20T07:44:14;10.93;;;9.23;;
48963;SDS011;34776;48.180;16.420;2023-05-20T07:46:39;15.75;;;10.68;;
48963;SDS011;34776;48.180;16.420;2023-05-20T07:49:08;10.32;;;8.73;;
48963;SDS011;34776;48.180;16.420;2023-05-20T07:51:33;11.20;;;9.13;;
48963;SDS011;34776;48.180;16.420;2023-05-20T07:53:58;11.27;;;8.85;;
48963;SDS011;34776;48.180;16.420;2023-05-20T07:56:24;17.13;;;9.90;;
48963;SDS011;34776;48.180;16.420;2023-05-20T07:58:53;10.23;;;8.18;;
48963;SDS011;34776;48.180;16.420;2023-05-20T08:01:22;9.32;;;7.82;;
48963;SDS011;34776;48.180;16.420;2023-05-20T08:03:48;10.05;;;8.30;;
48963;SDS011;34776;48.180;16.420;2023-05-20T08:06:13;9.52;;;8.50;;
48963;SDS011;34776;48.180;16.420;2023-05-20T08:08:38;10.13;;;9.07;;
48963;SDS011;34776;48.180;16.420;2023-05-20T08:11:07;11.60;;;8.32;;
48963;SDS011;34776;48.180;16.420;2023-05-20T08:13:32;9.18;;;7.72;;
48963;SDS011;34776;48.180;16.420;2023-05-20T08:15:58;29.45;;;9.55;;
48963;SDS011;34776;48.180;16.420;2023-05-20T08:18:23;13.57;;;7.83;;
48963;SDS011;34776;48.180;16.420;2023-05-20T08:20:49;23.80;;;9.73;;
48963;SDS011;34776;48.180;16.420;2023-05-20T08:23:15;22.35;;;8.93;;
48963;SDS011;34776;48.180;16.420;2023-05-20T08:25:40;15.68;;;8.20;;
48963;SDS011;34776;48.180;16.420;2023-05-20T08:28:06;11.90;;;8.32;;
48963;SDS011;34776;48.180;16.420;2023-05-20T08:30:31;9.40;;;8.25;;
48963;SDS011;34776;48.180;16.420;2023-05-20T08:32:58;12.35;;;9.13;;
48963;SDS011;34776;48.180;16.420;2023-05-20T08:35:24;17.70;;;9.07;;
48963;SDS011;34776;48.180;16.420;2023-05-20T08:37:49;16.50;;;10.65;;
48963;SDS011;34776;48.180;16.420;2023-05-20T08:40:17;10.73;;;8.02;;
48963;SDS011;34776;48.180;16.420;2023-05-20T08:42:44;9.93;;;8.25;;
48963;SDS011;34776;48.180;16.420;2023-05-20T08:45:10;8.85;;;7.95;;
48963;SDS011;34776;48.180;16.420;2023-05-20T08:47:37;8.52;;;7.68;;
48963;SDS011;34776;48.180;16.420;2023-05-20T08:50:06;13.05;;;8.80;;
48963;SDS011;34776;48.180;16.420;2023-05-20T08:52:32;12.07;;;10.75;;
48963;SDS011;34776;48.180;16.420;2023-05-20T08:54:59;9.57;;;8.52;;
48963;SDS011;34776;48.180;16.420;2023-05-20T08:57:25;8.75;;;7.88;;
48963;SDS011;34776;48.180;16.420;2023-05-20T08:59:51;9.50;;;8.32;;
48963;SDS011;34776;48.180;16.420;2023-05-20T09:02:17;8.85;;;7.93;;
48963;SDS011;34776;48.180;16.420;2023-05-20T09:04:42;9.38;;;7.60;;
48963;SDS011;34776;48.180;16.420;2023-05-20T09:07:08;10.20;;;6.90;;
48963;SDS011;34776;48.180;16.420;2023-05-20T09:09:34;10.23;;;7.97;;
48963;SDS011;34776;48.180;16.420;2023-05-20T09:12:00;12.00;;;7.43;;
48963;SDS011;34776;48.180;16.420;2023-05-20T09:14:27;7.72;;;6.90;;
48963;SDS011;34776;48.180;16.420;2023-05-20T09:16:54;22.13;;;8.77;;
48963;SDS011;34776;48.180;16.420;2023-05-20T09:19:20;9.02;;;7.75;;
48963;SDS011;34776;48.180;16.420;2023-05-20T09:21:46;9.00;;;8.00;;
48963;SDS011;34776;48.180;16.420;2023-05-20T09:24:12;8.65;;;7.10;;
48963;SDS011;34776;48.180;16.420;2023-05-20T09:26:37;8.20;;;7.07;;
48963;SDS011;34776;48.180;16.420;2023-05-20T09:29:03;10.10;;;7.75;;
48963;SDS011;34776;48.180;16.420;2023-05-20T09:31:32;7.97;;;7.15;;
48963;SDS011;34776;48.180;16.420;2023-05-20T09:34:01;10.02;;;7.82;;
48963;SDS011;34776;48.180;16.420;2023-05-20T09:36:27;14.73;;;7.38;;
48963;SDS011;34776;48.180;16.420;2023-05-20T09:38:55;8.73;;;7.25;;
48963;SDS011;34776;48.180;16.420;2023-05-20T09:41:24;9.85;;;8.27;;
48963;SDS011;34776;48.180;16.420;2023-05-20T09:43:52;10.98;;;9.07;;
48963;SDS011;34776;48.180;16.420;2023-05-20T09:46:18;12.75;;;8.73;;
48963;SDS011;34776;48.180;16.420;2023-05-20T09:48:44;11.30;;;8.40;;
48963;SDS011;34776;48.180;16.420;2023-05-20T09:51:10;9.00;;;8.10;;
48963;SDS011;34776;48.180;16.420;2023-05-20T09:53:37;10.75;;;8.57;;
48963;SDS011;34776;48.180;16.420;2023-05-20T09:56:03;10.60;;;8.38;;
48963;SDS011;34776;48.180;16.420;2023-05-20T09:58:28;10.70;;;8.40;;
48963;SDS011;34776;48.180;16.420;2023-05-20T10:00:54;9.18;;;8.27;;
48963;SDS011;34776;48.180;16.420;2023-05-20T10:03:20;9.15;;;7.72;;
48963;SDS011;34776;48.180;16.420;2023-05-20T10:06:05;8.32;;;7.47;;
48963;SDS011;34776;48.180;16.420;2023-05-20T10:11:27;7.90;;;7.05;;
48963;SDS011;34776;48.180;16.420;2023-05-20T10:14:19;10.02;;;8.40;;
48963;SDS011;34776;48.180;16.420;2023-05-20T10:17:04;9.98;;;7.88;;
48963;SDS011;34776;48.180;16.420;2023-05-20T10:19:57;13.68;;;7.82;;
48963;SDS011;34776;48.180;16.420;2023-05-20T10:22:27;9.45;;;7.22;;
48963;SDS011;34776;48.180;16.420;2023-05-20T10:25:03;8.73;;;7.82;;
48963;SDS011;34776;48.180;16.420;2023-05-20T10:27:42;9.13;;;8.18;;
48963;SDS011;34776;48.180;16.420;2023-05-20T10:30:14;11.27;;;7.57;;
48963;SDS011;34776;48.180;16.420;2023-05-20T10:32:47;8.60;;;7.70;;
48963;SDS011;34776;48.180;16.420;2023-05-20T10:35:24;9.85;;;7.35;;
48963;SDS011;34776;48.180;16.420;2023-05-20T10:37:50;12.32;;;8.75;;
48963;SDS011;34776;48.180;16.420;2023-05-20T10:40:17;9.25;;;7.60;;
48963;SDS011;34776;48.180;16.420;2023-05-20T10:42:44;8.00;;;7.20;;
48963;SDS011;34776;48.180;16.420;2023-05-20T10:45:10;11.02;;;7.47;;
48963;SDS011;34776;48.180;16.420;2023-05-20T10:47:36;11.38;;;7.65;;
48963;SDS011;34776;48.180;16.420;2023-05-20T10:50:06;17.67;;;8.02;;
48963;SDS011;34776;48.180;16.420;2023-05-20T10:52:32;11.70;;;7.45;;
48963;SDS011;34776;48.180;16.420;2023-05-20T10:55:00;10.55;;;7.80;;
48963;SDS011;34776;48.180;16.420;2023-05-20T10:57:26;11.50;;;7.88;;
48963;SDS011;34776;48.180;16.420;2023-05-20T10:59:53;9.07;;;7.40;;
48963;SDS011;34776;48.180;16.420;2023-05-20T11:02:19;8.25;;;7.07;;
48963;SDS011;34776;48.180;16.420;2023-05-20T11:04:50;8.88;;;6.95;;
48963;SDS011;34776;48.180;16.420;2023-05-20T11:07:28;8.87;;;7.63;;
48963;SDS011;34776;48.180;16.420;2023-05-20T11:09:54;9.30;;;8.18;;
48963;SDS011;34776;48.180;16.420;2023-05-20T11:12:21;8.52;;;6.35;;
48963;SDS011;34776;48.180;16.420;2023-05-20T11:14:48;7.78;;;6.90;;
48963;SDS011;34776;48.180;16.420;2023-05-20T11:17:14;6.15;;;5.57;;
48963;SDS011;34776;48.180;16.420;2023-05-20T11:19:40;7.28;;;6.25;;
48963;SDS011;34776;48.180;16.420;2023-05-20T11:22:08;9.90;;;6.40;;
48963;SDS011;34776;48.180;16.420;2023-05-20T11:24:34;9.45;;;6.03;;
48963;SDS011;34776;48.180;16.420;2023-05-20T11:27:00;10.07;;;6.18;;
48963;SDS011;34776;48.180;16.420;2023-05-20T11:29:26;9.73;;;7.25;;
48963;SDS011;34776;48.180;16.420;2023-05-20T11:31:53;7.00;;;6.30;;
48963;SDS011;34776;48.180;16.420;2023-05-20T11:34:19;8.25;;;6.60;;
48963;SDS011;34776;48.180;16.420;2023-05-20T11:36:46;7.05;;;6.13;;
48963;SDS011;34776;48.180;16.420;2023-05-20T11:39:12;8.02;;;5.82;;
48963;SDS011;34776;48.180;16.420;2023-05-20T11:41:39;8.93;;;6.03;;
48963;SDS011;34776;48.180;16.420;2023-05-20T11:44:08;7.43;;;5.88;;
48963;SDS011;34776;48.180;16.420;2023-05-20T11:46:39;11.88;;;6.28;;
48963;SDS011;34776;48.180;16.420;2023-05-20T11:49:06;7.03;;;5.85;;
48963;SDS011;34776;48.180;16.420;2023-05-20T11:51:32;9.45;;;6.00;;
48963;SDS011;34776;48.180;16.420;2023-05-20T11:53:58;6.53;;;5.93;;
48963;SDS011;34776;48.180;16.420;2023-05-20T11:56:27;6.43;;;5.75;;
48963;SDS011;34776;48.180;16.420;2023-05-20T11:58:53;6.00;;;5.40;;
48963;SDS011;34776;48.180;16.420;2023-05-20T12:01:21;5.80;;;5.30;;
48963;SDS011;34776;48.180;16.420;2023-05-20T12:03:46;10.07;;;6.15;;
48963;SDS011;34776;48.180;16.420;2023-05-20T12:06:12;6.00;;;5.40;;
48963;SDS011;34776;48.180;16.420;2023-05-20T12:08:37;8.15;;;5.63;;
48963;SDS011;34776;48.180;16.420;2023-05-20T12:11:03;9.95;;;5.93;;
48963;SDS011;34776;48.180;16.420;2023-05-20T12:13:28;5.53;;;5.03;;
48963;SDS011;34776;48.180;16.420;2023-05-20T12:15:53;7.72;;;6.38;;
48963;SDS011;34776;48.180;16.420;2023-05-20T12:18:19;7.45;;;5.53;;
48963;SDS011;34776;48.180;16.420;2023-05-20T12:20:44;7.95;;;5.53;;
48963;SDS011;34776;48.180;16.420;2023-05-20T12:23:09;6.82;;;4.80;;
48963;SDS011;34776;48.180;16.420;2023-05-20T12:25:35;8.27;;;4.93;;
48963;SDS011;34776;48.180;16.420;2023-05-20T12:28:00;7.75;;;5.35;;
48963;SDS011;34776;48.180;16.420;2023-05-20T12:30:26;7.40;;;5.13;;
48963;SDS011;34776;48.180;16.420;2023-05-20T12:32:51;8.77;;;5.20;;
48963;SDS011;34776;48.180;16.420;2023-05-20T12:35:23;5.78;;;5.15;;
48963;SDS011;34776;48.180;16.420;2023-05-20T12:38:10;5.22;;;4.22;;
48963;SDS011;34776;48.180;16.420;2023-05-20T12:40:36;8.25;;;4.90;;
48963;SDS011;34776;48.180;16.420;2023-05-20T12:43:01;5.50;;;5.00;;
48963;SDS011;34776;48.180;16.420;2023-05-20T12:45:28;6.20;;;5.13;;
48963;SDS011;34776;48.180;16.420;2023-05-20T12:47:54;9.93;;;5.18;;
48963;SDS011;34776;48.180;16.420;2023-05-20T12:50:21;7.22;;;5.95;;
48963;SDS011;34776;48.180;16.420;2023-05-20T12:52:48;5.78;;;5.22;;
48963;SDS011;34776;48.180;16.420;2023-05-20T12:55:13;6.85;;;5.13;;
48963;SDS011;34776;48.180;16.420;2023-05-20T12:57:39;5.82;;;4.70;;
48963;SDS011;34776;48.180;16.420;2023-05-20T13:00:06;11.93;;;6.07;;
48963;SDS011;34776;48.180;16.420;2023-05-20T13:02:32;8.35;;;4.97;;
48963;SDS011;34776;48.180;16.420;2023-05-20T13:04:58;7.82;;;4.85;;
48963;SDS011;34776;48.180;16.420;2023-05-20T13:07:23;5.47;;;4.97;;
48963;SDS011;34776;48.180;16.420;2023-05-20T13:09:50;5.43;;;4.55;;
48963;SDS011;34776;48.180;16.420;2023-05-20T13:12:16;6.78;;;5.07;;
48963;SDS011;34776;48.180;16.420;2023-05-20T13:14:42;6.53;;;5.13;;
48963;SDS011;34776;48.180;16.420;2023-05-20T13:17:07;5.40;;;4.90;;
48963;SDS011;34776;48.180;16.420;2023-05-20T13:19:32;7.57;;;5.22;;
48963;SDS011;34776;48.180;16.420;2023-05-20T13:21:58;6.57;;;4.53;;
48963;SDS011;34776;48.180;16.420;2023-05-20T13:24:23;5.90;;;4.85;;
48963;SDS011;34776;48.180;16.420;2023-05-20T13:26:49;7.40;;;5.20;;
48963;SDS011;34776;48.180;16.420;2023-05-20T13:29:15;7.07;;;5.32;;
48963;SDS011;34776;48.180;16.420;2023-05-20T13:31:40;6.22;;;5.07;;
48963;SDS011;34776;48.180;16.420;2023-05-20T13:34:06;7.97;;;4.75;;
48963;SDS011;34776;48.180;16.420;2023-05-20T13:36:31;6.57;;;5.55;;
48963;SDS011;34776;48.180;16.420;2023-05-20T13:38:57;6.00;;;5.25;;
48963;SDS011;34776;48.180;16.420;2023-05-20T13:41:23;6.00;;;5.40;;
48963;SDS011;34776;48.180;16.420;2023-05-20T13:43:50;7.10;;;5.05;;
48963;SDS011;34776;48.180;16.420;2023-05-20T13:46:16;8.13;;;5.45;;
48963;SDS011;34776;48.180;16.420;2023-05-20T13:48:41;9.10;;;5.22;;
48963;SDS011;34776;48.180;16.420;2023-05-20T13:51:07;6.20;;;4.93;;
48963;SDS011;34776;48.180;16.420;2023-05-20T13:53:32;6.47;;;5.10;;
48963;SDS011;34776;48.180;16.420;2023-05-20T13:55:58;5.53;;;4.93;;
48963;SDS011;34776;48.180;16.420;2023-05-20T13:58:23;6.93;;;4.75;;
48963;SDS011;34776;48.180;16.420;2023-05-20T14:00:49;6.57;;;4.43;;
48963;SDS011;34776;48.180;16.420;2023-05-20T14:03:15;6.78;;;4.60;;
48963;SDS011;34776;48.180;16.420;2023-05-20T14:05:40;5.80;;;5.03;;
48963;SDS011;34776;48.180;16.420;2023-05-20T14:08:06;6.47;;;5.53;;
48963;SDS011;34776;48.180;16.420;2023-05-20T14:10:31;8.73;;;5.57;;
48963;SDS011;34776;48.180;16.420;2023-05-20T14:12:57;10.48;;;5.85;;
48963;SDS011;34776;48.180;16.420;2023-05-20T14:15:22;7.25;;;5.85;;
48963;SDS011;34776;48.180;16.420;2023-05-20T14:17:48;8.63;;;5.80;;